sensor_id;sensor_type;location;lat;lon;timestamp;P1;durP1;ratioP1;P2;durP2;ratioP2
66702;SDS011;60933;46.398;-63.798;2022-08-18T00:01:02;10.65;;;1.23;;
66702;SDS011;60933;46.398;-63.798;2022-08-18T00:03:29;3.90;;;0.75;;
66702;SDS011;60933;46.398;-63.798;2022-08-18T00:05:56;6.05;;;1.05;;
66702;SDS011;60933;46.398;-63.798;2022-08-18T00:08:22;2.20;;;0.70;;
66702;SDS011;60933;46.398;-63.798;2022-08-18T00:10:48;4.13;;;1.00;;
66702;SDS011;60933;46.398;-63.798;2022-08-18T00:13:14;3.28;;;0.60;;
66702;SDS011;60933;46.398;-63.798;2022-08-18T00:15:40;6.68;;;1.33;;
66702;SDS011;60933;46.398;-63.798;2022-08-18T00:18:06;5.15;;;0.82;;
66702;SDS011;60933;46.398;-63.798;2022-08-18T00:20:32;2.95;;;0.75;;
66702;SDS011;60933;46.398;-63.798;2022-08-18T00:22:58;5.72;;;1.55;;
66702;SDS011;60933;46.398;-63.798;2022-08-18T00:25:24;3.70;;;0.70;;
66702;SDS011;60933;46.398;-63.798;2022-08-18T00:27:51;5.85;;;1.00;;
66702;SDS011;60933;46.398;-63.798;2022-08-18T00:30:18;7.30;;;1.40;;
66702;SDS011;60933;46.398;-63.798;2022-08-18T00:32:47;5.13;;;0.77;;
66702;SDS011;60933;46.398;-63.798;2022-08-18T00:35:24;3.83;;;1.05;;
66702;SDS011;60933;46.398;-63.798;2022-08-18T00:37:53;4.38;;;1.27;;
66702;SDS011;60933;46.398;-63.798;2022-08-18T00:40:24;5.57;;;1.15;;
66702;SDS011;60933;46.398;-63.798;2022-08-18T00:43:00;3.92;;;1.30;;
66702;SDS011;60933;46.398;-63.798;2022-08-18T00:45:33;3.92;;;1.40;;
66702;SDS011;60933;46.398;-63.798;2022-08-18T00:48:02;4.68;;;1.25;;
66702;SDS011;60933;46.398;-63.798;2022-08-18T00:50:40;5.00;;;1.50;;
66702;SDS011;60933;46.398;-63.798;2022-08-18T00:56:18;3.85;;;1.80;;
66702;SDS011;60933;46.398;-63.798;2022-08-18T00:58:56;2.97;;;1.65;;
66702;SDS011;60933;46.398;-63.798;2022-08-18T01:01:31;3.97;;;3.00;;
66702;SDS011;60933;46.398;-63.798;2022-08-18T01:04:00;4.88;;;1.90;;
66702;SDS011;60933;46.398;-63.798;2022-08-18T01:06:33;3.05;;;1.80;;
66702;SDS011;60933;46.398;-63.798;2022-08-18T01:09:06;3.60;;;1.98;;
66702;SDS011;60933;46.398;-63.798;2022-08-18T01:11:34;3.10;;;1.70;;
66702;SDS011;60933;46.398;-63.798;2022-08-18T01:14:02;4.00;;;1.83;;
66702;SDS011;60933;46.398;-63.798;2022-08-18T01:16:30;4.38;;;2.33;;
66702;SDS011;60933;46.398;-63.798;2022-08-18T01:19:15;6.78;;;2.10;;
66702;SDS011;60933;46.398;-63.798;2022-08-18T01:22:04;2.92;;;1.70;;
66702;SDS011;60933;46.398;-63.798;2022-08-18T01:24:37;4.68;;;2.10;;
66702;SDS011;60933;46.398;-63.798;2022-08-18T01:27:22;4.57;;;1.85;;
66702;SDS011;60933;46.398;-63.798;2022-08-18T01:29:49;4.93;;;1.90;;
66702;SDS011;60933;46.398;-63.798;2022-08-18T01:32:16;5.97;;;2.42;;
66702;SDS011;60933;46.398;-63.798;2022-08-18T01:34:49;3.88;;;2.03;;
66702;SDS011;60933;46.398;-63.798;2022-08-18T01:37:18;5.10;;;2.10;;
66702;SDS011;60933;46.398;-63.798;2022-08-18T01:39:46;4.53;;;1.75;;
66702;SDS011;60933;46.398;-63.798;2022-08-18T01:42:13;4.03;;;2.00;;
66702;SDS011;60933;46.398;-63.798;2022-08-18T01:44:44;5.10;;;2.30;;
66702;SDS011;60933;46.398;-63.798;2022-08-18T01:47:13;6.57;;;2.60;;
66702;SDS011;60933;46.398;-63.798;2022-08-18T01:49:42;8.07;;;3.03;;
66702;SDS011;60933;46.398;-63.798;2022-08-18T01:52:09;4.40;;;2.10;;
66702;SDS011;60933;46.398;-63.798;2022-08-18T01:54:42;3.58;;;2.25;;
66702;SDS011;60933;46.398;-63.798;2022-08-18T01:57:08;4.65;;;1.88;;
66702;SDS011;60933;46.398;-63.798;2022-08-18T01:59:37;7.00;;;2.15;;
66702;SDS011;60933;46.398;-63.798;2022-08-18T02:02:03;4.63;;;2.10;;
66702;SDS011;60933;46.398;-63.798;2022-08-18T02:04:30;3.92;;;2.00;;
66702;SDS011;60933;46.398;-63.798;2022-08-18T02:06:58;5.55;;;2.05;;
66702;SDS011;60933;46.398;-63.798;2022-08-18T02:09:27;5.00;;;2.63;;
66702;SDS011;60933;46.398;-63.798;2022-08-18T02:11:54;4.35;;;2.10;;
66702;SDS011;60933;46.398;-63.798;2022-08-18T02:14:21;4.10;;;1.75;;
66702;SDS011;60933;46.398;-63.798;2022-08-18T02:16:48;4.00;;;1.80;;
66702;SDS011;60933;46.398;-63.798;2022-08-18T02:19:14;3.20;;;2.10;;
66702;SDS011;60933;46.398;-63.798;2022-08-18T02:21:40;5.82;;;1.80;;
66702;SDS011;60933;46.398;-63.798;2022-08-18T02:24:06;3.85;;;2.17;;
66702;SDS011;60933;46.398;-63.798;2022-08-18T02:26:32;3.58;;;1.48;;
66702;SDS011;60933;46.398;-63.798;2022-08-18T02:28:58;3.95;;;1.45;;
66702;SDS011;60933;46.398;-63.798;2022-08-18T02:31:24;2.53;;;1.17;;
66702;SDS011;60933;46.398;-63.798;2022-08-18T02:33:50;4.68;;;1.33;;
66702;SDS011;60933;46.398;-63.798;2022-08-18T02:36:17;3.10;;;1.05;;
66702;SDS011;60933;46.398;-63.798;2022-08-18T02:38:43;2.20;;;1.88;;
66702;SDS011;60933;46.398;-63.798;2022-08-18T02:41:10;3.60;;;1.20;;
66702;SDS011;60933;46.398;-63.798;2022-08-18T02:43:37;5.57;;;1.65;;
66702;SDS011;60933;46.398;-63.798;2022-08-18T02:46:05;1.67;;;0.90;;
66702;SDS011;60933;46.398;-63.798;2022-08-18T02:48:31;2.58;;;0.90;;
66702;SDS011;60933;46.398;-63.798;2022-08-18T02:51:02;2.85;;;1.20;;
66702;SDS011;60933;46.398;-63.798;2022-08-18T02:53:31;3.85;;;1.50;;
66702;SDS011;60933;46.398;-63.798;2022-08-18T02:56:08;1.95;;;0.80;;
66702;SDS011;60933;46.398;-63.798;2022-08-18T02:59:00;4.10;;;0.82;;
66702;SDS011;60933;46.398;-63.798;2022-08-18T03:01:30;2.05;;;0.75;;
66702;SDS011;60933;46.398;-63.798;2022-08-18T03:03:59;5.15;;;1.23;;
66702;SDS011;60933;46.398;-63.798;2022-08-18T03:06:26;4.68;;;1.15;;
66702;SDS011;60933;46.398;-63.798;2022-08-18T03:08:53;4.07;;;1.00;;
66702;SDS011;60933;46.398;-63.798;2022-08-18T03:11:21;2.65;;;0.57;;
66702;SDS011;60933;46.398;-63.798;2022-08-18T03:13:49;5.10;;;1.60;;
66702;SDS011;60933;46.398;-63.798;2022-08-18T03:16:16;4.53;;;1.02;;
66702;SDS011;60933;46.398;-63.798;2022-08-18T03:18:43;2.92;;;1.38;;
66702;SDS011;60933;46.398;-63.798;2022-08-18T03:21:13;2.85;;;0.70;;
66702;SDS011;60933;46.398;-63.798;2022-08-18T03:23:41;2.30;;;0.90;;
66702;SDS011;60933;46.398;-63.798;2022-08-18T03:26:08;3.35;;;0.63;;
66702;SDS011;60933;46.398;-63.798;2022-08-18T03:28:37;3.95;;;0.90;;
66702;SDS011;60933;46.398;-63.798;2022-08-18T03:31:05;6.93;;;0.90;;
66702;SDS011;60933;46.398;-63.798;2022-08-18T03:33:32;3.88;;;1.05;;
66702;SDS011;60933;46.398;-63.798;2022-08-18T03:36:03;2.78;;;0.70;;
66702;SDS011;60933;46.398;-63.798;2022-08-18T03:40:56;2.67;;;0.80;;
66702;SDS011;60933;46.398;-63.798;2022-08-18T03:43:22;1.45;;;0.45;;
66702;SDS011;60933;46.398;-63.798;2022-08-18T03:45:48;2.35;;;0.60;;
66702;SDS011;60933;46.398;-63.798;2022-08-18T03:48:14;3.38;;;1.58;;
66702;SDS011;60933;46.398;-63.798;2022-08-18T03:50:40;7.03;;;0.90;;
66702;SDS011;60933;46.398;-63.798;2022-08-18T03:53:07;3.40;;;0.60;;
66702;SDS011;60933;46.398;-63.798;2022-08-18T03:55:33;3.03;;;0.63;;
66702;SDS011;60933;46.398;-63.798;2022-08-18T03:57:59;4.30;;;1.42;;
66702;SDS011;60933;46.398;-63.798;2022-08-18T04:00:30;3.33;;;0.52;;
66702;SDS011;60933;46.398;-63.798;2022-08-18T04:02:58;1.63;;;0.35;;
66702;SDS011;60933;46.398;-63.798;2022-08-18T04:05:27;2.38;;;0.73;;
66702;SDS011;60933;46.398;-63.798;2022-08-18T04:07:54;2.10;;;0.45;;
66702;SDS011;60933;46.398;-63.798;2022-08-18T04:10:22;1.88;;;0.57;;
66702;SDS011;60933;46.398;-63.798;2022-08-18T04:12:49;2.17;;;0.63;;
66702;SDS011;60933;46.398;-63.798;2022-08-18T04:15:15;3.50;;;0.70;;
66702;SDS011;60933;46.398;-63.798;2022-08-18T04:17:42;6.18;;;0.65;;
66702;SDS011;60933;46.398;-63.798;2022-08-18T04:20:10;2.15;;;0.88;;
66702;SDS011;60933;46.398;-63.798;2022-08-18T04:22:37;3.65;;;0.70;;
66702;SDS011;60933;46.398;-63.798;2022-08-18T04:25:04;6.15;;;0.77;;
66702;SDS011;60933;46.398;-63.798;2022-08-18T04:27:34;3.00;;;0.70;;
66702;SDS011;60933;46.398;-63.798;2022-08-18T04:30:01;5.82;;;0.80;;
66702;SDS011;60933;46.398;-63.798;2022-08-18T04:32:29;3.25;;;0.50;;
66702;SDS011;60933;46.398;-63.798;2022-08-18T04:34:55;2.15;;;1.05;;
66702;SDS011;60933;46.398;-63.798;2022-08-18T04:37:21;4.35;;;0.60;;
66702;SDS011;60933;46.398;-63.798;2022-08-18T04:39:47;3.90;;;0.43;;
66702;SDS011;60933;46.398;-63.798;2022-08-18T04:42:13;2.55;;;0.57;;
66702;SDS011;60933;46.398;-63.798;2022-08-18T04:44:40;3.17;;;1.05;;
66702;SDS011;60933;46.398;-63.798;2022-08-18T04:47:06;3.67;;;0.75;;
66702;SDS011;60933;46.398;-63.798;2022-08-18T04:49:37;2.95;;;1.35;;
66702;SDS011;60933;46.398;-63.798;2022-08-18T04:52:04;0.80;;;0.40;;
66702;SDS011;60933;46.398;-63.798;2022-08-18T04:54:49;1.30;;;0.47;;
66702;SDS011;60933;46.398;-63.798;2022-08-18T04:57:17;1.60;;;0.40;;
66702;SDS011;60933;46.398;-63.798;2022-08-18T04:59:46;4.70;;;0.63;;
66702;SDS011;60933;46.398;-63.798;2022-08-18T05:02:14;1.77;;;0.50;;
66702;SDS011;60933;46.398;-63.798;2022-08-18T05:04:44;1.85;;;0.40;;
66702;SDS011;60933;46.398;-63.798;2022-08-18T05:07:15;1.67;;;0.43;;
66702;SDS011;60933;46.398;-63.798;2022-08-18T05:09:44;1.30;;;0.20;;
66702;SDS011;60933;46.398;-63.798;2022-08-18T05:12:11;3.40;;;0.40;;
66702;SDS011;60933;46.398;-63.798;2022-08-18T05:14:39;2.33;;;0.43;;
66702;SDS011;60933;46.398;-63.798;2022-08-18T05:17:08;2.00;;;0.38;;
66702;SDS011;60933;46.398;-63.798;2022-08-18T05:19:35;1.52;;;0.40;;
66702;SDS011;60933;46.398;-63.798;2022-08-18T05:22:01;1.33;;;0.60;;
66702;SDS011;60933;46.398;-63.798;2022-08-18T05:24:28;1.20;;;0.30;;
66702;SDS011;60933;46.398;-63.798;2022-08-18T05:26:57;0.70;;;0.30;;
66702;SDS011;60933;46.398;-63.798;2022-08-18T05:29:23;1.80;;;0.52;;
66702;SDS011;60933;46.398;-63.798;2022-08-18T05:31:50;1.70;;;0.47;;
66702;SDS011;60933;46.398;-63.798;2022-08-18T05:34:18;2.97;;;1.15;;
66702;SDS011;60933;46.398;-63.798;2022-08-18T05:39:20;4.35;;;0.95;;
66702;SDS011;60933;46.398;-63.798;2022-08-18T05:41:54;2.83;;;0.57;;
66702;SDS011;60933;46.398;-63.798;2022-08-18T05:44:31;2.55;;;0.60;;
66702;SDS011;60933;46.398;-63.798;2022-08-18T05:47:04;3.63;;;0.70;;
66702;SDS011;60933;46.398;-63.798;2022-08-18T05:49:35;3.40;;;0.60;;
66702;SDS011;60933;46.398;-63.798;2022-08-18T05:52:04;2.72;;;0.80;;
66702;SDS011;60933;46.398;-63.798;2022-08-18T05:54:35;1.40;;;0.63;;
66702;SDS011;60933;46.398;-63.798;2022-08-18T05:57:23;3.45;;;0.95;;
66702;SDS011;60933;46.398;-63.798;2022-08-18T05:59:55;2.85;;;0.70;;
66702;SDS011;60933;46.398;-63.798;2022-08-18T06:05:14;2.92;;;0.90;;
66702;SDS011;60933;46.398;-63.798;2022-08-18T06:08:02;1.63;;;0.75;;
66702;SDS011;60933;46.398;-63.798;2022-08-18T06:10:30;2.40;;;0.70;;
66702;SDS011;60933;46.398;-63.798;2022-08-18T06:12:57;3.47;;;1.25;;
66702;SDS011;60933;46.398;-63.798;2022-08-18T06:38:10;1.52;;;0.60;;
66702;SDS011;60933;46.398;-63.798;2022-08-18T06:41:00;3.22;;;0.70;;
66702;SDS011;60933;46.398;-63.798;2022-08-18T06:43:28;2.20;;;0.90;;
66702;SDS011;60933;46.398;-63.798;2022-08-18T06:45:59;2.97;;;0.80;;
66702;SDS011;60933;46.398;-63.798;2022-08-18T06:48:36;5.43;;;0.88;;
66702;SDS011;60933;46.398;-63.798;2022-08-18T06:51:13;2.35;;;0.70;;
66702;SDS011;60933;46.398;-63.798;2022-08-18T06:53:49;1.25;;;0.70;;
66702;SDS011;60933;46.398;-63.798;2022-08-18T06:56:26;4.88;;;0.90;;
66702;SDS011;60933;46.398;-63.798;2022-08-18T06:59:25;2.85;;;0.88;;
66702;SDS011;60933;46.398;-63.798;2022-08-18T07:04:57;3.13;;;0.60;;
66702;SDS011;60933;46.398;-63.798;2022-08-18T07:12:38;2.17;;;1.10;;
66702;SDS011;60933;46.398;-63.798;2022-08-18T07:15:05;2.65;;;0.82;;
66702;SDS011;60933;46.398;-63.798;2022-08-18T07:17:33;2.60;;;1.15;;
66702;SDS011;60933;46.398;-63.798;2022-08-18T07:25:40;2.85;;;0.80;;
66702;SDS011;60933;46.398;-63.798;2022-08-18T07:28:28;1.83;;;1.20;;
66702;SDS011;60933;46.398;-63.798;2022-08-18T07:33:55;4.60;;;0.75;;
66702;SDS011;60933;46.398;-63.798;2022-08-18T07:36:28;3.17;;;0.63;;
66702;SDS011;60933;46.398;-63.798;2022-08-18T07:39:02;2.63;;;0.70;;
66702;SDS011;60933;46.398;-63.798;2022-08-18T07:41:35;3.08;;;0.70;;
66702;SDS011;60933;46.398;-63.798;2022-08-18T07:44:24;2.15;;;1.00;;
66702;SDS011;60933;46.398;-63.798;2022-08-18T07:47:00;2.35;;;1.02;;
66702;SDS011;60933;46.398;-63.798;2022-08-18T07:49:32;1.30;;;0.73;;
66702;SDS011;60933;46.398;-63.798;2022-08-18T07:52:04;1.38;;;0.70;;
66702;SDS011;60933;46.398;-63.798;2022-08-18T07:55:03;2.38;;;0.70;;
66702;SDS011;60933;46.398;-63.798;2022-08-18T08:10:11;2.45;;;1.30;;
66702;SDS011;60933;46.398;-63.798;2022-08-18T08:12:34;1.83;;;0.63;;
66702;SDS011;60933;46.398;-63.798;2022-08-18T08:15:11;3.03;;;0.63;;
66702;SDS011;60933;46.398;-63.798;2022-08-18T08:17:54;4.00;;;1.35;;
66702;SDS011;60933;46.398;-63.798;2022-08-18T08:20:44;2.97;;;0.77;;
66702;SDS011;60933;46.398;-63.798;2022-08-18T08:26:35;4.72;;;0.70;;
66702;SDS011;60933;46.398;-63.798;2022-08-18T08:29:26;4.28;;;1.05;;
66702;SDS011;60933;46.398;-63.798;2022-08-18T08:32:00;3.80;;;0.80;;
66702;SDS011;60933;46.398;-63.798;2022-08-18T08:37:26;2.35;;;0.90;;
66702;SDS011;60933;46.398;-63.798;2022-08-18T08:40:36;2.42;;;0.80;;
66702;SDS011;60933;46.398;-63.798;2022-08-18T08:43:14;3.00;;;1.25;;
66702;SDS011;60933;46.398;-63.798;2022-08-18T08:48:33;2.05;;;0.50;;
66702;SDS011;60933;46.398;-63.798;2022-08-18T08:51:23;2.28;;;0.73;;
66702;SDS011;60933;46.398;-63.798;2022-08-18T08:54:05;2.78;;;0.70;;
66702;SDS011;60933;46.398;-63.798;2022-08-18T08:56:44;8.38;;;1.05;;
66702;SDS011;60933;46.398;-63.798;2022-08-18T08:59:13;5.53;;;0.98;;
66702;SDS011;60933;46.398;-63.798;2022-08-18T09:04:38;4.93;;;0.80;;
66702;SDS011;60933;46.398;-63.798;2022-08-18T09:07:41;6.00;;;1.10;;
66702;SDS011;60933;46.398;-63.798;2022-08-18T09:18:49;5.50;;;1.00;;
66702;SDS011;60933;46.398;-63.798;2022-08-18T09:24:44;2.88;;;1.05;;
66702;SDS011;60933;46.398;-63.798;2022-08-18T09:27:29;3.60;;;1.00;;
66702;SDS011;60933;46.398;-63.798;2022-08-18T09:38:58;2.88;;;0.63;;
66702;SDS011;60933;46.398;-63.798;2022-08-18T09:42:06;3.75;;;1.00;;
66702;SDS011;60933;46.398;-63.798;2022-08-18T09:47:12;2.85;;;0.80;;
66702;SDS011;60933;46.398;-63.798;2022-08-18T09:55:00;4.93;;;1.15;;
66702;SDS011;60933;46.398;-63.798;2022-08-18T09:57:32;3.75;;;0.80;;
66702;SDS011;60933;46.398;-63.798;2022-08-18T10:05:21;2.08;;;0.60;;
66702;SDS011;60933;46.398;-63.798;2022-08-18T10:07:56;3.42;;;0.73;;
66702;SDS011;60933;46.398;-63.798;2022-08-18T10:16:22;3.70;;;0.93;;
66702;SDS011;60933;46.398;-63.798;2022-08-18T10:27:08;3.65;;;0.65;;
66702;SDS011;60933;46.398;-63.798;2022-08-18T10:29:55;4.53;;;0.60;;
66702;SDS011;60933;46.398;-63.798;2022-08-18T10:32:23;2.05;;;0.60;;
66702;SDS011;60933;46.398;-63.798;2022-08-18T10:35:01;2.80;;;0.50;;
66702;SDS011;60933;46.398;-63.798;2022-08-18T10:42:39;2.78;;;0.95;;
66702;SDS011;60933;46.398;-63.798;2022-08-18T10:50:40;1.50;;;0.63;;
66702;SDS011;60933;46.398;-63.798;2022-08-18T10:56:32;2.05;;;0.60;;
66702;SDS011;60933;46.398;-63.798;2022-08-18T11:04:30;2.95;;;1.42;;
66702;SDS011;60933;46.398;-63.798;2022-08-18T11:09:33;2.47;;;0.43;;
66702;SDS011;60933;46.398;-63.798;2022-08-18T11:12:01;4.40;;;0.70;;
66702;SDS011;60933;46.398;-63.798;2022-08-18T11:14:38;1.15;;;0.50;;
66702;SDS011;60933;46.398;-63.798;2022-08-18T11:19:47;2.50;;;0.47;;
66702;SDS011;60933;46.398;-63.798;2022-08-18T11:24:49;6.50;;;0.73;;
66702;SDS011;60933;46.398;-63.798;2022-08-18T11:27:18;2.40;;;0.63;;
66702;SDS011;60933;46.398;-63.798;2022-08-18T11:29:46;2.58;;;0.40;;
66702;SDS011;60933;46.398;-63.798;2022-08-18T11:34:50;2.47;;;0.50;;
66702;SDS011;60933;46.398;-63.798;2022-08-18T11:39:52;2.20;;;0.38;;
66702;SDS011;60933;46.398;-63.798;2022-08-18T11:42:31;2.33;;;0.40;;
66702;SDS011;60933;46.398;-63.798;2022-08-18T11:45:11;1.27;;;0.38;;
66702;SDS011;60933;46.398;-63.798;2022-08-18T11:47:58;3.33;;;1.38;;
66702;SDS011;60933;46.398;-63.798;2022-08-18T11:50:26;2.25;;;0.80;;
66702;SDS011;60933;46.398;-63.798;2022-08-18T11:52:55;2.88;;;0.43;;
66702;SDS011;60933;46.398;-63.798;2022-08-18T11:55:31;2.90;;;0.50;;
66702;SDS011;60933;46.398;-63.798;2022-08-18T11:57:58;0.80;;;0.32;;
66702;SDS011;60933;46.398;-63.798;2022-08-18T12:00:41;2.15;;;0.50;;
66702;SDS011;60933;46.398;-63.798;2022-08-18T12:05:52;2.05;;;0.55;;
66702;SDS011;60933;46.398;-63.798;2022-08-18T12:08:30;2.75;;;0.40;;
66702;SDS011;60933;46.398;-63.798;2022-08-18T12:11:04;2.00;;;0.75;;
66702;SDS011;60933;46.398;-63.798;2022-08-18T12:13:43;3.20;;;0.45;;
66702;SDS011;60933;46.398;-63.798;2022-08-18T12:16:13;2.13;;;0.43;;
66702;SDS011;60933;46.398;-63.798;2022-08-18T12:19:00;1.58;;;0.43;;
66702;SDS011;60933;46.398;-63.798;2022-08-18T12:21:26;2.28;;;0.68;;
66702;SDS011;60933;46.398;-63.798;2022-08-18T12:23:52;1.65;;;0.30;;
66702;SDS011;60933;46.398;-63.798;2022-08-18T12:26:19;2.33;;;0.40;;
66702;SDS011;60933;46.398;-63.798;2022-08-18T12:28:45;1.90;;;0.40;;
66702;SDS011;60933;46.398;-63.798;2022-08-18T12:31:11;2.28;;;0.45;;
66702;SDS011;60933;46.398;-63.798;2022-08-18T12:33:37;1.42;;;0.50;;
66702;SDS011;60933;46.398;-63.798;2022-08-18T12:36:03;3.42;;;0.52;;
66702;SDS011;60933;46.398;-63.798;2022-08-18T12:38:31;1.27;;;0.40;;
66702;SDS011;60933;46.398;-63.798;2022-08-18T12:40:58;1.98;;;1.00;;
66702;SDS011;60933;46.398;-63.798;2022-08-18T12:43:24;2.38;;;0.47;;
66702;SDS011;60933;46.398;-63.798;2022-08-18T12:45:50;1.77;;;0.60;;
66702;SDS011;60933;46.398;-63.798;2022-08-18T12:48:17;1.63;;;0.60;;
66702;SDS011;60933;46.398;-63.798;2022-08-18T12:50:43;1.77;;;0.50;;
66702;SDS011;60933;46.398;-63.798;2022-08-18T12:53:10;3.08;;;0.40;;
66702;SDS011;60933;46.398;-63.798;2022-08-18T12:55:41;1.40;;;0.50;;
66702;SDS011;60933;46.398;-63.798;2022-08-18T12:58:08;1.25;;;0.40;;
66702;SDS011;60933;46.398;-63.798;2022-08-18T13:00:34;2.65;;;1.00;;
66702;SDS011;60933;46.398;-63.798;2022-08-18T13:03:00;2.55;;;0.68;;
66702;SDS011;60933;46.398;-63.798;2022-08-18T13:05:27;1.77;;;0.60;;
66702;SDS011;60933;46.398;-63.798;2022-08-18T13:07:55;1.95;;;0.63;;
66702;SDS011;60933;46.398;-63.798;2022-08-18T13:10:25;3.22;;;0.52;;
66702;SDS011;60933;46.398;-63.798;2022-08-18T13:12:52;1.10;;;0.22;;
66702;SDS011;60933;46.398;-63.798;2022-08-18T13:15:18;3.38;;;0.50;;
66702;SDS011;60933;46.398;-63.798;2022-08-18T13:17:44;1.48;;;0.47;;
66702;SDS011;60933;46.398;-63.798;2022-08-18T13:20:11;1.52;;;0.40;;
66702;SDS011;60933;46.398;-63.798;2022-08-18T13:22:39;1.15;;;0.45;;
66702;SDS011;60933;46.398;-63.798;2022-08-18T13:25:05;1.33;;;0.40;;
66702;SDS011;60933;46.398;-63.798;2022-08-18T13:27:35;2.40;;;0.40;;
66702;SDS011;60933;46.398;-63.798;2022-08-18T13:30:05;1.67;;;0.40;;
66702;SDS011;60933;46.398;-63.798;2022-08-18T13:32:38;4.30;;;0.50;;
66702;SDS011;60933;46.398;-63.798;2022-08-18T13:35:06;1.60;;;0.40;;
66702;SDS011;60933;46.398;-63.798;2022-08-18T13:37:32;3.00;;;0.40;;
66702;SDS011;60933;46.398;-63.798;2022-08-18T13:40:00;2.50;;;0.70;;
66702;SDS011;60933;46.398;-63.798;2022-08-18T13:42:27;1.33;;;0.43;;
66702;SDS011;60933;46.398;-63.798;2022-08-18T13:44:54;1.35;;;0.80;;
66702;SDS011;60933;46.398;-63.798;2022-08-18T13:47:25;1.98;;;1.10;;
66702;SDS011;60933;46.398;-63.798;2022-08-18T13:49:56;1.27;;;0.40;;
66702;SDS011;60933;46.398;-63.798;2022-08-18T13:52:24;1.05;;;0.30;;
66702;SDS011;60933;46.398;-63.798;2022-08-18T13:54:50;2.67;;;0.50;;
66702;SDS011;60933;46.398;-63.798;2022-08-18T13:57:16;0.55;;;0.30;;
66702;SDS011;60933;46.398;-63.798;2022-08-18T13:59:42;1.60;;;0.30;;
66702;SDS011;60933;46.398;-63.798;2022-08-18T14:02:09;0.63;;;0.28;;
66702;SDS011;60933;46.398;-63.798;2022-08-18T14:04:35;1.33;;;0.57;;
66702;SDS011;60933;46.398;-63.798;2022-08-18T14:07:02;1.48;;;0.57;;
66702;SDS011;60933;46.398;-63.798;2022-08-18T14:09:30;1.98;;;0.30;;
66702;SDS011;60933;46.398;-63.798;2022-08-18T14:11:56;0.88;;;0.40;;
66702;SDS011;60933;46.398;-63.798;2022-08-18T14:14:23;1.00;;;0.30;;
66702;SDS011;60933;46.398;-63.798;2022-08-18T14:16:49;1.20;;;0.45;;
66702;SDS011;60933;46.398;-63.798;2022-08-18T14:19:15;0.70;;;0.22;;
66702;SDS011;60933;46.398;-63.798;2022-08-18T14:21:59;1.05;;;0.30;;
66702;SDS011;60933;46.398;-63.798;2022-08-18T14:24:44;1.55;;;0.63;;
66702;SDS011;60933;46.398;-63.798;2022-08-18T14:27:30;0.80;;;0.30;;
66702;SDS011;60933;46.398;-63.798;2022-08-18T14:29:59;2.00;;;1.00;;
66702;SDS011;60933;46.398;-63.798;2022-08-18T14:32:31;1.08;;;0.22;;
66702;SDS011;60933;46.398;-63.798;2022-08-18T14:34:58;0.95;;;0.30;;
66702;SDS011;60933;46.398;-63.798;2022-08-18T14:37:25;0.60;;;0.57;;
66702;SDS011;60933;46.398;-63.798;2022-08-18T14:39:53;1.00;;;0.30;;
66702;SDS011;60933;46.398;-63.798;2022-08-18T14:42:19;1.95;;;0.30;;
66702;SDS011;60933;46.398;-63.798;2022-08-18T14:44:46;0.47;;;0.30;;
66702;SDS011;60933;46.398;-63.798;2022-08-18T14:47:13;0.85;;;0.20;;
66702;SDS011;60933;46.398;-63.798;2022-08-18T14:49:39;2.97;;;0.30;;
66702;SDS011;60933;46.398;-63.798;2022-08-18T14:52:07;0.40;;;0.40;;
66702;SDS011;60933;46.398;-63.798;2022-08-18T14:54:37;0.73;;;0.73;;
66702;SDS011;60933;46.398;-63.798;2022-08-18T14:57:03;0.20;;;0.20;;
66702;SDS011;60933;46.398;-63.798;2022-08-18T14:59:32;0.50;;;0.30;;
66702;SDS011;60933;46.398;-63.798;2022-08-18T15:01:58;0.80;;;0.30;;
66702;SDS011;60933;46.398;-63.798;2022-08-18T15:04:24;0.82;;;0.68;;
66702;SDS011;60933;46.398;-63.798;2022-08-18T15:06:52;0.38;;;0.20;;
66702;SDS011;60933;46.398;-63.798;2022-08-18T15:09:18;1.38;;;0.30;;
66702;SDS011;60933;46.398;-63.798;2022-08-18T15:11:45;0.30;;;0.30;;
66702;SDS011;60933;46.398;-63.798;2022-08-18T15:14:11;0.40;;;0.20;;
66702;SDS011;60933;46.398;-63.798;2022-08-18T15:16:37;1.00;;;0.73;;
66702;SDS011;60933;46.398;-63.798;2022-08-18T15:19:03;0.20;;;0.20;;
66702;SDS011;60933;46.398;-63.798;2022-08-18T15:21:29;0.35;;;0.20;;
66702;SDS011;60933;46.398;-63.798;2022-08-18T15:24:14;0.20;;;0.20;;
66702;SDS011;60933;46.398;-63.798;2022-08-18T15:26:59;0.15;;;0.10;;
66702;SDS011;60933;46.398;-63.798;2022-08-18T15:29:27;0.55;;;0.20;;
66702;SDS011;60933;46.398;-63.798;2022-08-18T15:31:54;1.02;;;0.22;;
66702;SDS011;60933;46.398;-63.798;2022-08-18T15:34:20;1.35;;;0.20;;
66702;SDS011;60933;46.398;-63.798;2022-08-18T15:36:46;0.57;;;0.55;;
66702;SDS011;60933;46.398;-63.798;2022-08-18T15:39:13;0.68;;;0.43;;
66702;SDS011;60933;46.398;-63.798;2022-08-18T15:41:41;0.35;;;0.30;;
66702;SDS011;60933;46.398;-63.798;2022-08-18T15:44:15;1.55;;;0.30;;
66702;SDS011;60933;46.398;-63.798;2022-08-18T15:46:42;0.73;;;0.50;;
66702;SDS011;60933;46.398;-63.798;2022-08-18T15:49:09;0.32;;;0.32;;
66702;SDS011;60933;46.398;-63.798;2022-08-18T15:51:36;0.40;;;0.40;;
66702;SDS011;60933;46.398;-63.798;2022-08-18T15:54:03;0.50;;;0.28;;
66702;SDS011;60933;46.398;-63.798;2022-08-18T15:56:31;0.70;;;0.40;;
66702;SDS011;60933;46.398;-63.798;2022-08-18T15:58:58;0.20;;;0.20;;
66702;SDS011;60933;46.398;-63.798;2022-08-18T16:01:31;0.32;;;0.32;;
66702;SDS011;60933;46.398;-63.798;2022-08-18T16:03:59;0.28;;;0.28;;
66702;SDS011;60933;46.398;-63.798;2022-08-18T16:06:27;0.73;;;0.30;;
66702;SDS011;60933;46.398;-63.798;2022-08-18T16:08:54;1.23;;;0.38;;
66702;SDS011;60933;46.398;-63.798;2022-08-18T16:11:20;0.68;;;0.20;;
66702;SDS011;60933;46.398;-63.798;2022-08-18T16:13:47;0.22;;;0.22;;
66702;SDS011;60933;46.398;-63.798;2022-08-18T16:16:15;0.65;;;0.30;;
66702;SDS011;60933;46.398;-63.798;2022-08-18T16:18:44;0.22;;;0.22;;
66702;SDS011;60933;46.398;-63.798;2022-08-18T16:21:11;1.13;;;1.13;;
66702;SDS011;60933;46.398;-63.798;2022-08-18T16:23:40;1.08;;;0.32;;
66702;SDS011;60933;46.398;-63.798;2022-08-18T16:26:09;0.40;;;0.20;;
66702;SDS011;60933;46.398;-63.798;2022-08-18T16:28:40;0.65;;;0.22;;
66702;SDS011;60933;46.398;-63.798;2022-08-18T16:31:09;0.40;;;0.40;;
66702;SDS011;60933;46.398;-63.798;2022-08-18T16:33:39;0.35;;;0.35;;
66702;SDS011;60933;46.398;-63.798;2022-08-18T16:36:10;0.28;;;0.20;;
66702;SDS011;60933;46.398;-63.798;2022-08-18T16:38:39;0.80;;;0.40;;
66702;SDS011;60933;46.398;-63.798;2022-08-18T16:41:09;0.30;;;0.10;;
66702;SDS011;60933;46.398;-63.798;2022-08-18T16:43:39;0.40;;;0.32;;
66702;SDS011;60933;46.398;-63.798;2022-08-18T16:46:09;0.60;;;0.30;;
66702;SDS011;60933;46.398;-63.798;2022-08-18T16:48:41;0.55;;;0.52;;
66702;SDS011;60933;46.398;-63.798;2022-08-18T16:51:19;0.35;;;0.30;;
66702;SDS011;60933;46.398;-63.798;2022-08-18T16:53:48;0.40;;;0.40;;
66702;SDS011;60933;46.398;-63.798;2022-08-18T16:56:17;0.35;;;0.35;;
66702;SDS011;60933;46.398;-63.798;2022-08-18T16:58:45;0.50;;;0.40;;
66702;SDS011;60933;46.398;-63.798;2022-08-18T17:01:29;0.80;;;0.20;;
66702;SDS011;60933;46.398;-63.798;2022-08-18T17:04:15;0.93;;;0.30;;
66702;SDS011;60933;46.398;-63.798;2022-08-18T17:06:44;0.60;;;0.40;;
66702;SDS011;60933;46.398;-63.798;2022-08-18T17:09:10;1.17;;;0.47;;
66702;SDS011;60933;46.398;-63.798;2022-08-18T17:11:37;0.52;;;0.30;;
66702;SDS011;60933;46.398;-63.798;2022-08-18T17:14:04;1.25;;;0.10;;
66702;SDS011;60933;46.398;-63.798;2022-08-18T17:16:32;0.40;;;0.30;;
66702;SDS011;60933;46.398;-63.798;2022-08-18T17:18:59;0.70;;;0.40;;